createdAt,value
2018-07-26T00:00:13.701Z,18.29
2018-07-26T00:01:13.790Z,18.29
2018-07-26T00:02:13.741Z,18.29
2018-07-26T00:03:13.760Z,18.31
2018-07-26T00:04:13.792Z,18.28
2018-07-26T00:05:13.838Z,18.27
2018-07-26T00:06:13.706Z,18.25
2018-07-26T00:07:13.833Z,18.24
2018-07-26T00:08:13.817Z,18.23
2018-07-26T00:09:13.799Z,18.20
2018-07-26T00:10:13.698Z,18.18
2018-07-26T00:11:13.726Z,18.14
2018-07-26T00:12:13.835Z,18.09
2018-07-26T00:13:13.724Z,18.06
2018-07-26T00:14:13.833Z,18.05
2018-07-26T00:15:13.722Z,18.02
2018-07-26T00:16:13.854Z,18.03
2018-07-26T00:17:13.843Z,17.99
2018-07-26T00:18:13.845Z,17.96
2018-07-26T00:19:13.810Z,17.94
2018-07-26T00:20:13.741Z,17.94
2018-07-26T00:21:13.745Z,17.94
2018-07-26T00:22:13.812Z,17.92
2018-07-26T00:23:13.816Z,17.89
2018-07-26T00:24:13.850Z,17.85
2018-07-26T00:25:13.818Z,17.83
2018-07-26T00:26:13.815Z,17.77
2018-07-26T00:27:13.812Z,17.75
2018-07-26T00:28:13.814Z,17.73
2018-07-26T00:29:13.744Z,17.71
2018-07-26T00:30:13.818Z,17.68
2018-07-26T00:31:13.819Z,17.69
2018-07-26T00:32:13.791Z,17.66
2018-07-26T00:33:13.853Z,17.66
2018-07-26T00:34:13.817Z,17.64
2018-07-26T00:35:13.821Z,17.64
2018-07-26T00:36:13.851Z,17.65
2018-07-26T00:37:13.757Z,17.66
2018-07-26T00:38:13.751Z,17.65
2018-07-26T00:39:13.718Z,17.68
2018-07-26T00:40:13.753Z,17.68
2018-07-26T00:41:13.873Z,17.66
2018-07-26T00:42:13.755Z,17.68
2018-07-26T00:43:13.863Z,17.66
2018-07-26T00:44:13.762Z,17.65
2018-07-26T00:45:13.839Z,17.61
2018-07-26T00:46:13.760Z,17.58
2018-07-26T00:47:13.758Z,17.57
2018-07-26T00:48:13.789Z,17.53
2018-07-26T00:49:13.825Z,17.49
2018-07-26T00:50:13.799Z,17.46
2018-07-26T00:51:13.796Z,17.44
2018-07-26T00:52:13.864Z,17.43
2018-07-26T00:53:13.732Z,17.39
2018-07-26T00:54:13.867Z,17.37
2018-07-26T00:55:13.805Z,17.37
2018-07-26T00:56:13.756Z,17.33
2018-07-26T00:57:13.859Z,17.31
2018-07-26T00:58:13.839Z,17.28
2018-07-26T00:59:13.837Z,17.26
2018-07-26T01:00:13.856Z,17.26
2018-07-26T01:01:13.857Z,17.28
2018-07-26T01:02:13.741Z,17.28
2018-07-26T01:03:13.778Z,17.25
2018-07-26T01:04:13.842Z,17.24
2018-07-26T01:05:13.847Z,17.24
2018-07-26T01:06:13.786Z,17.24
2018-07-26T01:07:13.810Z,17.24
2018-07-26T01:08:13.745Z,17.24
2018-07-26T01:09:13.831Z,17.22
2018-07-26T01:10:13.831Z,17.21
2018-07-26T01:11:13.777Z,17.18
2018-07-26T01:12:13.771Z,17.14
2018-07-26T01:13:13.740Z,17.13
2018-07-26T01:14:13.804Z,17.12
2018-07-26T01:15:13.763Z,17.10
2018-07-26T01:16:13.715Z,17.09
2018-07-26T01:17:13.716Z,17.09
2018-07-26T01:18:13.875Z,17.08
2018-07-26T01:19:13.885Z,17.08
2018-07-26T01:20:13.857Z,17.03
2018-07-26T01:21:13.818Z,17.03
2018-07-26T01:22:13.890Z,17.01
2018-07-26T01:23:13.773Z,16.99
2018-07-26T01:24:13.793Z,16.98
2018-07-26T01:25:13.814Z,16.97
2018-07-26T01:26:13.875Z,16.95
2018-07-26T01:27:13.855Z,16.92
2018-07-26T01:28:13.831Z,16.92
2018-07-26T01:29:13.888Z,16.92
2018-07-26T01:30:13.893Z,16.91
2018-07-26T01:31:13.857Z,16.90
2018-07-26T01:32:13.882Z,16.90
2018-07-26T01:33:13.859Z,16.90
2018-07-26T01:34:13.894Z,16.85
2018-07-26T01:35:13.900Z,16.81
2018-07-26T01:36:13.891Z,16.80
2018-07-26T01:37:13.825Z,16.80
2018-07-26T01:38:13.864Z,16.79
2018-07-26T01:39:13.865Z,16.77
2018-07-26T01:40:13.866Z,16.77
2018-07-26T01:41:13.795Z,16.76
2018-07-26T01:42:13.876Z,16.72
2018-07-26T01:43:13.865Z,16.70
2018-07-26T01:44:13.868Z,16.68
2018-07-26T01:45:13.866Z,16.66
2018-07-26T01:46:13.869Z,16.69
2018-07-26T01:47:13.801Z,16.73
2018-07-26T01:48:13.825Z,16.73
2018-07-26T01:49:13.871Z,16.73
2018-07-26T01:50:13.872Z,16.70
2018-07-26T01:51:13.805Z,16.69
2018-07-26T01:52:13.874Z,16.66
2018-07-26T01:53:13.808Z,16.63
2018-07-26T01:54:13.874Z,16.59
2018-07-26T01:55:13.808Z,16.61
2018-07-26T01:56:13.882Z,16.61
2018-07-26T01:57:13.812Z,16.58
2018-07-26T01:58:13.876Z,16.57
2018-07-26T01:59:13.841Z,16.57
2018-07-26T02:00:13.780Z,16.55
2018-07-26T02:01:13.903Z,16.59
2018-07-26T02:02:13.793Z,16.57
2018-07-26T02:03:13.905Z,16.57
2018-07-26T02:04:13.881Z,16.54
2018-07-26T02:05:13.856Z,16.54
2018-07-26T02:06:13.849Z,16.50
2018-07-26T02:07:13.851Z,16.50
2018-07-26T02:08:13.878Z,16.55
2018-07-26T02:09:13.804Z,16.51
2018-07-26T02:10:13.899Z,16.46
2018-07-26T02:11:13.912Z,16.41
2018-07-26T02:12:13.902Z,16.36
2018-07-26T02:13:13.889Z,16.31
2018-07-26T02:14:13.926Z,16.29
2018-07-26T02:15:13.866Z,16.31
2018-07-26T02:16:13.809Z,16.32
2018-07-26T02:17:13.810Z,16.35
2018-07-26T02:18:13.932Z,16.35
2018-07-26T02:19:13.889Z,16.35
2018-07-26T02:20:13.861Z,16.35
2018-07-26T02:21:13.861Z,16.33
2018-07-26T02:22:13.867Z,16.33
2018-07-26T02:23:13.845Z,16.31
2018-07-26T02:24:13.928Z,16.31
2018-07-26T02:25:13.922Z,16.28
2018-07-26T02:26:13.814Z,16.27
2018-07-26T02:27:13.896Z,16.25
2018-07-26T02:28:13.894Z,16.24
2018-07-26T02:29:13.869Z,16.25
2018-07-26T02:30:13.869Z,16.22
2018-07-26T02:31:13.869Z,16.18
2018-07-26T02:32:13.899Z,16.16
2018-07-26T02:33:13.917Z,16.14
2018-07-26T02:34:13.916Z,16.14
2018-07-26T02:35:13.907Z,16.13
2018-07-26T02:36:13.900Z,16.13
2018-07-26T02:37:13.806Z,16.13
2018-07-26T02:38:13.924Z,16.14
2018-07-26T02:39:13.807Z,16.13
2018-07-26T02:40:13.843Z,16.13
2018-07-26T02:41:13.929Z,16.17
2018-07-26T02:42:13.908Z,16.20
2018-07-26T02:43:13.940Z,16.18
2018-07-26T02:44:13.881Z,16.17
2018-07-26T02:45:13.845Z,16.16
2018-07-26T02:46:13.941Z,16.16
2018-07-26T02:47:13.864Z,16.14
2018-07-26T02:48:13.916Z,16.14
2018-07-26T02:49:13.945Z,16.13
2018-07-26T02:50:13.949Z,16.13
2018-07-26T02:51:13.871Z,16.10
2018-07-26T02:52:13.858Z,16.10
2018-07-26T02:53:13.916Z,16.09
2018-07-26T02:54:13.937Z,16.09
2018-07-26T02:55:13.932Z,16.07
2018-07-26T02:56:13.882Z,16.06
2018-07-26T02:57:13.843Z,16.05
2018-07-26T02:58:13.817Z,16.06
2018-07-26T02:59:13.824Z,16.05
2018-07-26T03:00:13.888Z,16.07
2018-07-26T03:01:13.949Z,16.10
2018-07-26T03:02:13.946Z,16.10
2018-07-26T03:03:13.886Z,16.09
2018-07-26T03:04:13.847Z,16.06
2018-07-26T03:05:13.939Z,16.07
2018-07-26T03:06:13.865Z,16.09
2018-07-26T03:07:13.919Z,16.07
2018-07-26T03:08:13.884Z,16.09
2018-07-26T03:09:13.830Z,16.09
2018-07-26T03:10:13.832Z,16.09
2018-07-26T03:11:13.941Z,16.07
2018-07-26T03:12:13.896Z,16.09
2018-07-26T03:13:13.832Z,16.07
2018-07-26T03:14:13.909Z,16.07
2018-07-26T03:15:13.885Z,16.05
2018-07-26T03:16:13.970Z,16.03
2018-07-26T03:17:13.910Z,16.02
2018-07-26T03:18:13.966Z,16.03
2018-07-26T03:19:13.967Z,16.02
2018-07-26T03:20:13.936Z,16.00
2018-07-26T03:21:13.911Z,15.97
2018-07-26T03:22:13.841Z,15.99
2018-07-26T03:23:13.843Z,15.97
2018-07-26T03:24:13.932Z,15.95
2018-07-26T03:25:13.902Z,15.94
2018-07-26T03:26:13.977Z,15.93
2018-07-26T03:27:13.937Z,15.93
2018-07-26T03:28:13.944Z,15.90
2018-07-26T03:29:13.932Z,15.94
2018-07-26T03:30:13.846Z,15.95
2018-07-26T03:31:13.941Z,15.95
2018-07-26T03:32:13.859Z,15.94
2018-07-26T03:33:13.934Z,15.94
2018-07-26T03:34:13.849Z,15.94
2018-07-26T03:35:13.864Z,15.93
2018-07-26T03:36:13.939Z,15.91
2018-07-26T03:37:13.937Z,15.91
2018-07-26T03:38:13.851Z,15.90
2018-07-26T03:39:13.986Z,15.88
2018-07-26T03:40:13.962Z,15.88
2018-07-26T03:41:13.917Z,15.88
2018-07-26T03:42:13.990Z,15.87
2018-07-26T03:43:14.010Z,15.84
2018-07-26T03:44:13.891Z,15.86
2018-07-26T03:45:13.973Z,15.86
2018-07-26T03:46:13.855Z,15.84
2018-07-26T03:47:13.988Z,15.84
2018-07-26T03:48:13.922Z,15.83
2018-07-26T03:49:13.894Z,15.82
2018-07-26T03:50:13.951Z,15.77
2018-07-26T03:51:13.954Z,15.77
2018-07-26T03:52:13.957Z,15.82
2018-07-26T03:53:13.955Z,15.83
2018-07-26T03:54:13.890Z,15.84
2018-07-26T03:55:13.967Z,15.84
2018-07-26T03:56:13.889Z,15.83
2018-07-26T03:57:13.955Z,15.82
2018-07-26T03:58:13.956Z,15.80
2018-07-26T03:59:13.957Z,15.79
2018-07-26T04:00:13.973Z,15.80
2018-07-26T04:01:13.865Z,15.80
2018-07-26T04:02:13.900Z,15.79
2018-07-26T04:03:13.991Z,15.77
2018-07-26T04:04:13.961Z,15.77
2018-07-26T04:05:13.880Z,15.77
2018-07-26T04:06:13.995Z,15.79
2018-07-26T04:07:13.988Z,15.79
2018-07-26T04:08:13.928Z,15.79
2018-07-26T04:09:13.997Z,15.77
2018-07-26T04:10:13.997Z,15.77
2018-07-26T04:11:13.998Z,15.76
2018-07-26T04:12:13.933Z,15.77
2018-07-26T04:13:13.928Z,15.76
2018-07-26T04:14:13.879Z,15.79
2018-07-26T04:15:13.954Z,15.79
2018-07-26T04:16:13.970Z,15.79
2018-07-26T04:17:13.872Z,15.83
2018-07-26T04:18:13.932Z,15.83
2018-07-26T04:19:13.894Z,15.83
2018-07-26T04:20:13.976Z,15.84
2018-07-26T04:21:13.992Z,15.84
2018-07-26T04:22:13.943Z,15.84
2018-07-26T04:23:13.952Z,15.84
2018-07-26T04:24:13.942Z,15.86
2018-07-26T04:25:14.003Z,15.84
2018-07-26T04:26:13.951Z,15.84
2018-07-26T04:27:13.948Z,15.84
2018-07-26T04:28:13.985Z,15.84
2018-07-26T04:29:13.936Z,15.84
2018-07-26T04:30:13.954Z,15.86
2018-07-26T04:31:14.002Z,15.84
2018-07-26T04:32:13.992Z,15.86
2018-07-26T04:33:13.995Z,15.87
2018-07-26T04:34:13.943Z,15.91
2018-07-26T04:35:14.005Z,15.94
2018-07-26T04:36:13.947Z,15.95
2018-07-26T04:37:14.029Z,15.97
2018-07-26T04:38:14.040Z,16.00
2018-07-26T04:39:14.047Z,16.00
2018-07-26T04:40:13.893Z,16.02
2018-07-26T04:41:13.951Z,16.03
2018-07-26T04:42:13.968Z,16.06
2018-07-26T04:43:13.958Z,16.09
2018-07-26T04:44:13.965Z,16.10
2018-07-26T04:45:13.909Z,16.14
2018-07-26T04:46:14.012Z,16.17
2018-07-26T04:47:13.929Z,16.21
2018-07-26T04:48:13.957Z,16.27
2018-07-26T04:49:13.912Z,16.35
2018-07-26T04:50:13.891Z,16.39
2018-07-26T04:51:13.954Z,16.44
2018-07-26T04:52:13.960Z,16.48
2018-07-26T04:53:13.963Z,16.52
2018-07-26T04:54:13.962Z,16.55
2018-07-26T04:55:13.951Z,16.59
2018-07-26T04:56:13.977Z,16.63
2018-07-26T04:57:14.026Z,16.66
2018-07-26T04:58:13.967Z,16.74
2018-07-26T04:59:13.961Z,16.80
2018-07-26T05:00:14.035Z,16.87
2018-07-26T05:01:13.970Z,16.97
2018-07-26T05:02:13.997Z,17.05
2018-07-26T05:03:14.034Z,17.14
2018-07-26T05:04:14.031Z,17.21
2018-07-26T05:05:13.978Z,17.24
2018-07-26T05:06:13.981Z,17.31
2018-07-26T05:07:13.979Z,17.35
2018-07-26T05:08:14.062Z,17.40
2018-07-26T05:09:13.909Z,17.53
2018-07-26T05:10:13.881Z,17.68
2018-07-26T05:11:14.002Z,17.79
2018-07-26T05:12:13.966Z,17.88
2018-07-26T05:13:13.918Z,17.96
2018-07-26T05:14:13.919Z,18.03
2018-07-26T05:15:13.998Z,18.12
2018-07-26T05:16:13.967Z,18.20
2018-07-26T05:17:14.007Z,18.27
2018-07-26T05:18:13.969Z,18.31
2018-07-26T05:19:14.015Z,18.34
2018-07-26T05:20:14.011Z,18.35
2018-07-26T05:21:13.951Z,18.40
2018-07-26T05:22:13.896Z,18.41
2018-07-26T05:23:13.950Z,18.43
2018-07-26T05:24:13.950Z,18.46
2018-07-26T05:25:14.017Z,18.48
2018-07-26T05:26:13.950Z,18.51
2018-07-26T05:27:14.027Z,18.55
2018-07-26T05:28:13.953Z,18.61
2018-07-26T05:29:13.926Z,18.65
2018-07-26T05:30:13.991Z,18.70
2018-07-26T05:31:14.050Z,18.76
2018-07-26T05:32:14.052Z,18.80
2018-07-26T05:33:14.058Z,18.84
2018-07-26T05:34:13.930Z,18.87
2018-07-26T05:35:13.931Z,18.92
2018-07-26T05:36:14.046Z,18.98
2018-07-26T05:37:13.969Z,19.06
2018-07-26T05:38:13.993Z,19.10
2018-07-26T05:39:13.931Z,19.16
2018-07-26T05:40:14.014Z,19.20
2018-07-26T05:41:13.964Z,19.28
2018-07-26T05:42:14.024Z,19.38
2018-07-26T05:43:13.988Z,19.43
2018-07-26T05:44:13.982Z,19.50
2018-07-26T05:45:13.936Z,19.54
2018-07-26T05:46:13.941Z,19.58
2018-07-26T05:47:13.966Z,19.62
2018-07-26T05:48:14.019Z,19.65
2018-07-26T05:49:14.009Z,19.72
2018-07-26T05:50:14.002Z,19.76
2018-07-26T05:51:14.037Z,19.83
2018-07-26T05:52:14.006Z,19.90
2018-07-26T05:53:14.130Z,19.99
2018-07-26T05:54:14.084Z,20.13
2018-07-26T05:55:14.064Z,20.30
2018-07-26T05:56:14.058Z,20.47
2018-07-26T05:57:14.014Z,20.69
2018-07-26T05:58:14.039Z,20.83
2018-07-26T05:59:14.079Z,21.10
2018-07-26T06:00:14.024Z,21.35
2018-07-26T06:01:14.049Z,21.60
2018-07-26T06:02:14.045Z,21.82
2018-07-26T06:03:13.980Z,21.98
2018-07-26T06:04:14.010Z,22.17
2018-07-26T06:05:14.054Z,22.32
2018-07-26T06:06:14.044Z,22.38
2018-07-26T06:07:14.003Z,22.36
2018-07-26T06:08:14.050Z,22.46
2018-07-26T06:09:14.051Z,22.48
2018-07-26T06:10:13.969Z,22.63
2018-07-26T06:11:13.953Z,22.82
2018-07-26T06:12:14.039Z,23.00
2018-07-26T06:13:13.971Z,23.09
2018-07-26T06:14:14.045Z,23.16
2018-07-26T06:15:13.962Z,23.24
2018-07-26T06:16:13.985Z,23.38
2018-07-26T06:17:14.043Z,23.56
2018-07-26T06:18:14.076Z,23.64
2018-07-26T06:19:14.128Z,23.72
2018-07-26T06:20:14.026Z,23.89
2018-07-26T06:21:14.011Z,24.02
2018-07-26T06:22:14.031Z,24.16
2018-07-26T06:23:13.958Z,24.34
2018-07-26T06:24:13.959Z,24.41
2018-07-26T06:25:14.099Z,24.57
2018-07-26T06:26:13.982Z,24.67
2018-07-26T06:27:14.042Z,24.78
2018-07-26T06:28:14.182Z,24.86
2018-07-26T06:29:14.093Z,24.98
2018-07-26T06:30:14.036Z,24.95
2018-07-26T06:31:14.112Z,24.77
2018-07-26T06:32:14.030Z,24.51
2018-07-26T06:33:14.034Z,24.59
2018-07-26T06:34:14.007Z,24.75
2018-07-26T06:35:14.075Z,24.93
2018-07-26T06:36:14.026Z,25.00
2018-07-26T06:37:14.122Z,25.04
2018-07-26T06:38:14.102Z,25.16
2018-07-26T06:39:14.001Z,25.15
2018-07-26T06:40:13.975Z,25.29
2018-07-26T06:41:14.074Z,25.40
2018-07-26T06:42:14.084Z,25.53
2018-07-26T06:43:14.008Z,25.62
2018-07-26T06:44:14.000Z,25.75
2018-07-26T06:45:13.972Z,25.89
2018-07-26T06:46:14.067Z,26.00
2018-07-26T06:47:14.023Z,26.13
2018-07-26T06:48:14.069Z,26.21
2018-07-26T06:49:13.967Z,26.34
2018-07-26T06:50:14.073Z,26.21
2018-07-26T06:51:14.081Z,26.17
2018-07-26T06:52:14.074Z,26.21
2018-07-26T06:53:14.011Z,26.24
2018-07-26T06:54:14.084Z,26.18
2018-07-26T06:55:14.078Z,26.14
2018-07-26T06:56:14.016Z,26.32
2018-07-26T06:57:14.015Z,26.52
2018-07-26T06:58:14.010Z,26.78
2018-07-26T06:59:13.990Z,26.90
2018-07-26T07:00:14.077Z,27.11
2018-07-26T07:01:14.065Z,27.12
2018-07-26T07:02:14.113Z,27.29
2018-07-26T07:03:14.058Z,27.37
2018-07-26T07:04:14.090Z,27.33
2018-07-26T07:05:14.084Z,27.34
2018-07-26T07:06:14.124Z,27.22
2018-07-26T07:07:14.056Z,27.21
2018-07-26T07:08:14.094Z,27.34
2018-07-26T07:09:14.043Z,27.50
2018-07-26T07:10:13.990Z,27.43
2018-07-26T07:11:13.977Z,27.26
2018-07-26T07:12:14.034Z,27.28
2018-07-26T07:13:14.077Z,27.18
2018-07-26T07:14:14.026Z,26.97
2018-07-26T07:15:13.959Z,27.03
2018-07-26T07:16:14.083Z,27.15
2018-07-26T07:17:14.082Z,27.22
2018-07-26T07:18:13.998Z,27.30
2018-07-26T07:19:14.159Z,27.01
2018-07-26T07:20:14.035Z,26.86
2018-07-26T07:21:14.035Z,27.08
2018-07-26T07:22:14.046Z,27.06
2018-07-26T07:23:14.111Z,27.11
2018-07-26T07:24:14.035Z,27.04
2018-07-26T07:25:14.033Z,26.82
2018-07-26T07:26:14.100Z,26.70
2018-07-26T07:27:14.166Z,26.86
2018-07-26T07:28:14.102Z,27.07
2018-07-26T07:29:14.073Z,27.36
2018-07-26T07:30:14.099Z,27.59
2018-07-26T07:31:14.137Z,27.71
2018-07-26T07:32:14.090Z,27.71
2018-07-26T07:33:14.079Z,27.71
2018-07-26T07:34:14.126Z,27.98
2018-07-26T07:35:14.151Z,28.13
2018-07-26T07:36:14.088Z,28.17
2018-07-26T07:37:14.076Z,28.04
2018-07-26T07:38:14.035Z,28.13
2018-07-26T07:39:14.066Z,28.39
2018-07-26T07:40:14.050Z,28.57
2018-07-26T07:41:14.134Z,28.71
2018-07-26T07:42:14.033Z,28.97
2018-07-26T07:43:14.061Z,29.23
2018-07-26T07:44:14.075Z,29.50
2018-07-26T07:45:14.112Z,29.47
2018-07-26T07:46:14.152Z,29.66
2018-07-26T07:47:14.168Z,29.76
2018-07-26T07:48:14.131Z,29.46
2018-07-26T07:49:14.091Z,29.47
2018-07-26T07:50:14.053Z,29.64
2018-07-26T07:51:14.050Z,29.84
2018-07-26T07:52:14.120Z,29.81
2018-07-26T07:53:14.119Z,29.62
2018-07-26T07:54:14.063Z,29.70
2018-07-26T07:55:14.118Z,29.75
2018-07-26T07:56:14.059Z,29.62
2018-07-26T07:57:14.057Z,29.58
2018-07-26T07:58:14.139Z,29.69
2018-07-26T07:59:14.055Z,29.59
2018-07-26T08:00:14.098Z,29.77
2018-07-26T08:01:14.082Z,29.97
2018-07-26T08:02:14.125Z,30.05
2018-07-26T08:03:14.067Z,30.02
2018-07-26T08:04:14.155Z,30.30
2018-07-26T08:05:14.145Z,30.54
2018-07-26T08:06:14.127Z,30.75
2018-07-26T08:07:14.150Z,30.53
2018-07-26T08:08:14.165Z,30.32
2018-07-26T08:09:14.098Z,30.19
2018-07-26T08:10:14.088Z,30.32
2018-07-26T08:11:14.182Z,30.31
2018-07-26T08:12:14.033Z,30.15
2018-07-26T08:13:14.164Z,30.13
2018-07-26T08:14:14.154Z,30.38
2018-07-26T08:15:14.043Z,30.61
2018-07-26T08:16:14.096Z,30.80
2018-07-26T08:17:14.108Z,31.01
2018-07-26T08:18:14.110Z,31.20
2018-07-26T08:19:14.152Z,31.09
2018-07-26T08:20:14.141Z,30.95
2018-07-26T08:21:14.165Z,30.97
2018-07-26T08:22:14.072Z,31.02
2018-07-26T08:23:14.112Z,31.23
2018-07-26T08:24:14.151Z,31.42
2018-07-26T08:25:14.076Z,31.52
2018-07-26T08:26:14.146Z,31.75
2018-07-26T08:27:14.147Z,32.04
2018-07-26T08:28:14.081Z,32.32
2018-07-26T08:29:14.074Z,32.56
2018-07-26T08:30:14.105Z,32.67
2018-07-26T08:31:14.164Z,32.70
2018-07-26T08:32:14.174Z,32.88
2018-07-26T08:33:14.161Z,32.84
2018-07-26T08:34:14.174Z,33.00
2018-07-26T08:35:14.226Z,33.14
2018-07-26T08:36:14.067Z,33.25
2018-07-26T08:37:14.184Z,32.99
2018-07-26T08:38:14.149Z,32.67
2018-07-26T08:39:14.071Z,32.60
2018-07-26T08:40:14.156Z,32.54
2018-07-26T08:41:14.085Z,32.37
2018-07-26T08:42:14.151Z,32.11
2018-07-26T08:43:14.087Z,32.01
2018-07-26T08:44:14.157Z,32.01
2018-07-26T08:45:14.088Z,31.97
2018-07-26T08:46:14.159Z,32.18
2018-07-26T08:47:14.090Z,32.15
2018-07-26T08:48:14.185Z,32.29
2018-07-26T08:49:14.092Z,32.49
2018-07-26T08:50:14.092Z,32.59
2018-07-26T08:51:14.155Z,32.54
2018-07-26T08:52:14.169Z,32.32
2018-07-26T08:53:14.091Z,32.36
2018-07-26T08:54:14.195Z,32.26
2018-07-26T08:55:14.161Z,32.51
2018-07-26T08:56:14.162Z,32.77
2018-07-26T08:57:14.094Z,32.80
2018-07-26T08:58:14.100Z,32.70
2018-07-26T08:59:14.162Z,32.87
2018-07-26T09:00:14.145Z,33.07
2018-07-26T09:01:14.233Z,33.16
2018-07-26T09:02:14.099Z,33.00
2018-07-26T09:03:14.224Z,33.22
2018-07-26T09:04:14.166Z,33.59
2018-07-26T09:05:14.072Z,33.76
2018-07-26T09:06:14.198Z,33.74
2018-07-26T09:07:14.077Z,33.92
2018-07-26T09:08:14.092Z,34.14
2018-07-26T09:09:14.129Z,34.13
2018-07-26T09:10:14.151Z,33.92
2018-07-26T09:11:14.174Z,34.14
2018-07-26T09:12:14.196Z,34.12
2018-07-26T09:13:14.069Z,34.14
2018-07-26T09:14:14.135Z,34.13
2018-07-26T09:15:14.075Z,34.17
2018-07-26T09:16:14.203Z,34.27
2018-07-26T09:17:14.268Z,34.38
2018-07-26T09:18:14.074Z,34.53
2018-07-26T09:19:14.147Z,34.42
2018-07-26T09:20:14.210Z,34.47
2018-07-26T09:21:14.194Z,34.60
2018-07-26T09:22:14.208Z,34.60
2018-07-26T09:23:14.202Z,34.61
2018-07-26T09:24:14.104Z,34.60
2018-07-26T09:25:14.208Z,34.38
2018-07-26T09:26:14.190Z,33.98
2018-07-26T09:27:14.235Z,33.59
2018-07-26T09:28:14.146Z,33.44
2018-07-26T09:29:14.148Z,33.50
2018-07-26T09:30:14.186Z,33.66
2018-07-26T09:31:14.143Z,33.94
2018-07-26T09:32:14.188Z,34.28
2018-07-26T09:33:14.249Z,34.59
2018-07-26T09:34:14.196Z,34.64
2018-07-26T09:35:14.148Z,34.84
2018-07-26T09:36:14.169Z,34.84
2018-07-26T09:37:14.224Z,34.99
2018-07-26T09:38:14.150Z,34.90
2018-07-26T09:39:14.098Z,34.91
2018-07-26T09:40:14.192Z,34.99
2018-07-26T09:41:14.152Z,34.97
2018-07-26T09:42:14.232Z,35.02
2018-07-26T09:43:14.220Z,35.11
2018-07-26T09:44:14.168Z,35.19
2018-07-26T09:45:14.101Z,35.16
2018-07-26T09:46:14.199Z,35.05
2018-07-26T09:47:14.148Z,34.99
2018-07-26T09:48:14.172Z,35.11
2018-07-26T09:49:14.228Z,35.11
2018-07-26T09:50:14.196Z,35.11
2018-07-26T09:51:14.172Z,35.16
2018-07-26T09:52:14.098Z,35.20
2018-07-26T09:53:14.175Z,35.31
2018-07-26T09:54:14.182Z,35.37
2018-07-26T09:55:14.214Z,35.50
2018-07-26T09:56:14.122Z,35.50
2018-07-26T09:57:14.108Z,35.56
2018-07-26T09:58:14.186Z,35.57
2018-07-26T09:59:14.161Z,35.31
2018-07-26T10:00:14.168Z,35.17
2018-07-26T10:01:14.168Z,34.83
2018-07-26T10:02:14.168Z,34.70
2018-07-26T10:03:14.184Z,34.79
2018-07-26T10:04:14.238Z,34.82
2018-07-26T10:05:14.114Z,34.77
2018-07-26T10:06:14.168Z,34.82
2018-07-26T10:07:14.250Z,34.67
2018-07-26T10:08:14.184Z,34.54
2018-07-26T10:09:14.120Z,34.49
2018-07-26T10:10:14.102Z,34.60
2018-07-26T10:11:14.195Z,34.68
2018-07-26T10:12:14.155Z,34.68
2018-07-26T10:13:14.198Z,34.80
2018-07-26T10:14:14.198Z,35.02
2018-07-26T10:15:14.177Z,34.82
2018-07-26T10:16:14.175Z,34.53
2018-07-26T10:17:14.201Z,34.39
2018-07-26T10:18:14.192Z,34.38
2018-07-26T10:19:14.092Z,34.59
2018-07-26T10:20:14.225Z,34.57
2018-07-26T10:21:14.092Z,34.80
2018-07-26T10:22:14.153Z,35.06
2018-07-26T10:23:14.106Z,35.24
2018-07-26T10:24:14.210Z,35.48
2018-07-26T10:25:14.121Z,35.60
2018-07-26T10:26:14.180Z,35.73
2018-07-26T10:27:14.175Z,35.88
2018-07-26T10:28:14.091Z,35.84
2018-07-26T10:29:14.096Z,35.59
2018-07-26T10:30:14.254Z,35.59
2018-07-26T10:31:14.186Z,35.59
2018-07-26T10:33:14.260Z,35.88
2018-07-26T10:34:14.248Z,35.89
2018-07-26T10:35:14.148Z,35.75
2018-07-26T10:36:14.157Z,35.67
2018-07-26T10:37:14.259Z,35.56
2018-07-26T10:38:14.138Z,35.66
2018-07-26T10:39:14.135Z,35.70
2018-07-26T10:41:14.194Z,35.38
2018-07-26T10:42:14.238Z,35.41
2018-07-26T10:43:14.179Z,35.74
2018-07-26T10:44:14.195Z,35.93
2018-07-26T10:45:14.196Z,35.99
2018-07-26T10:47:14.210Z,36.12
2018-07-26T10:48:14.146Z,35.92
2018-07-26T10:49:14.214Z,35.70
2018-07-26T10:50:14.198Z,35.56
2018-07-26T10:51:14.192Z,35.68
2018-07-26T10:52:14.149Z,35.79
2018-07-26T10:53:14.142Z,35.99
2018-07-26T10:54:14.256Z,36.10
2018-07-26T10:55:14.269Z,36.04
2018-07-26T10:56:14.279Z,36.04
2018-07-26T10:57:14.258Z,36.19
2018-07-26T10:58:14.208Z,36.13
2018-07-26T10:59:14.150Z,36.26
2018-07-26T11:00:14.180Z,36.36
2018-07-26T11:01:14.182Z,36.39
2018-07-26T11:02:14.222Z,36.47
2018-07-26T11:03:14.233Z,36.48
2018-07-26T11:04:14.146Z,36.44
2018-07-26T11:05:14.186Z,35.93
2018-07-26T11:06:14.203Z,35.66
2018-07-26T11:07:14.122Z,35.70
2018-07-26T11:08:14.144Z,35.92
2018-07-26T11:09:14.144Z,35.84
2018-07-26T11:10:14.162Z,35.89
2018-07-26T11:11:14.285Z,35.97
2018-07-26T11:12:14.251Z,36.04
2018-07-26T11:13:14.291Z,36.06
2018-07-26T11:14:14.157Z,36.07
2018-07-26T11:15:14.295Z,36.04
2018-07-26T11:16:14.158Z,35.86
2018-07-26T11:17:14.180Z,35.81
2018-07-26T11:18:14.275Z,35.66
2018-07-26T11:19:14.219Z,35.70
2018-07-26T11:20:14.383Z,35.59
2018-07-26T11:21:14.245Z,35.53
2018-07-26T11:22:14.261Z,35.57
2018-07-26T11:23:14.247Z,35.73
2018-07-26T11:24:14.298Z,35.75
2018-07-26T11:25:14.296Z,35.71
2018-07-26T11:26:14.249Z,35.85
2018-07-26T11:27:14.171Z,35.85
2018-07-26T11:28:14.228Z,35.96
2018-07-26T11:29:14.295Z,36.06
2018-07-26T11:30:14.298Z,36.21
2018-07-26T11:31:14.225Z,36.13
2018-07-26T11:32:14.264Z,36.03
2018-07-26T11:33:14.237Z,35.62
2018-07-26T11:34:14.234Z,35.17
2018-07-26T11:35:14.225Z,34.95
2018-07-26T11:36:14.308Z,35.13
2018-07-26T11:37:14.308Z,35.44
2018-07-26T11:38:14.176Z,35.33
2018-07-26T11:39:14.180Z,35.23
2018-07-26T11:40:14.231Z,35.39
2018-07-26T11:41:14.243Z,35.53
2018-07-26T11:42:14.280Z,35.74
2018-07-26T11:43:14.243Z,35.81
2018-07-26T11:44:14.347Z,35.88
2018-07-26T11:45:14.307Z,36.00
2018-07-26T11:46:14.311Z,36.18
2018-07-26T11:47:14.297Z,36.28
2018-07-26T11:48:14.274Z,36.22
2018-07-26T11:49:14.294Z,36.11
2018-07-26T11:50:14.310Z,35.96
2018-07-26T11:51:14.255Z,35.89
2018-07-26T11:52:14.297Z,36.04
2018-07-26T11:53:14.243Z,35.92
2018-07-26T11:54:14.305Z,35.70
2018-07-26T11:55:14.248Z,35.52
2018-07-26T11:56:14.313Z,35.60
2018-07-26T11:57:14.294Z,35.79
2018-07-26T11:58:14.194Z,35.70
2018-07-26T11:59:14.289Z,35.84
2018-07-26T12:00:14.229Z,35.85
2018-07-26T12:01:14.254Z,35.89
2018-07-26T12:02:14.319Z,35.96
2018-07-26T12:03:14.210Z,36.12
2018-07-26T12:04:14.302Z,36.18
2018-07-26T12:05:14.257Z,35.99
2018-07-26T12:06:14.315Z,35.95
2018-07-26T12:07:14.318Z,36.01
2018-07-26T12:08:14.279Z,35.75
2018-07-26T12:09:14.261Z,35.71
2018-07-26T12:10:14.321Z,35.70
2018-07-26T12:11:14.273Z,35.73
2018-07-26T12:12:14.295Z,35.86
2018-07-26T12:13:14.356Z,36.01
2018-07-26T12:14:14.341Z,36.07
2018-07-26T12:15:14.296Z,36.28
2018-07-26T12:16:14.336Z,36.43
2018-07-26T12:17:14.276Z,36.51
2018-07-26T12:18:14.265Z,36.55
2018-07-26T12:19:14.319Z,36.55
2018-07-26T12:20:14.223Z,36.69
2018-07-26T12:21:14.268Z,36.66
2018-07-26T12:22:14.338Z,36.57
2018-07-26T12:23:14.266Z,36.18
2018-07-26T12:24:14.305Z,36.25
2018-07-26T12:25:14.225Z,36.33
2018-07-26T12:26:14.334Z,36.21
2018-07-26T12:27:14.337Z,36.28
2018-07-26T12:28:14.229Z,36.19
2018-07-26T12:29:14.339Z,36.04
2018-07-26T12:30:14.305Z,35.99
2018-07-26T12:31:14.313Z,36.03
2018-07-26T12:32:14.219Z,35.48
2018-07-26T12:33:14.314Z,35.34
2018-07-26T12:34:14.287Z,35.11
2018-07-26T12:35:14.336Z,35.04
2018-07-26T12:36:14.223Z,35.22
2018-07-26T12:37:14.362Z,35.09
2018-07-26T12:38:14.221Z,34.95
2018-07-26T12:39:14.341Z,34.84
2018-07-26T12:40:14.248Z,34.93
2018-07-26T12:41:14.357Z,35.05
2018-07-26T12:42:14.219Z,35.33
2018-07-26T12:43:14.312Z,35.38
2018-07-26T12:44:14.246Z,35.48
2018-07-26T12:45:14.308Z,35.57
2018-07-26T12:46:14.225Z,35.73
2018-07-26T12:47:14.253Z,35.82
2018-07-26T12:48:14.228Z,36.00
2018-07-26T12:49:14.315Z,36.08
2018-07-26T12:50:14.323Z,36.24
2018-07-26T12:51:14.321Z,36.24
2018-07-26T12:52:14.356Z,36.22
2018-07-26T12:53:14.413Z,36.37
2018-07-26T12:54:14.290Z,36.46
2018-07-26T12:55:14.292Z,36.59